createdAt,value
2018-12-05T00:00:35.773Z,34.67
2018-12-05T00:03:14.625Z,32.60
2018-12-05T00:05:50.597Z,30.93
2018-12-05T00:08:28.874Z,35.70
2018-12-05T00:11:03.308Z,37.60
2018-12-05T00:13:40.338Z,33.27
2018-12-05T00:16:17.692Z,31.63
2018-12-05T00:18:56.134Z,35.00
2018-12-05T00:21:32.652Z,38.80
2018-12-05T00:24:09.544Z,30.60
2018-12-05T00:26:46.316Z,34.00
2018-12-05T00:32:10.934Z,34.63
2018-12-05T00:34:47.974Z,36.95
2018-12-05T00:37:25.641Z,33.23
2018-12-05T00:40:01.996Z,33.73
2018-12-05T00:42:37.834Z,37.07
2018-12-05T00:45:13.448Z,36.37
2018-12-05T00:47:52.479Z,38.30
2018-12-05T00:50:30.686Z,37.23
2018-12-05T00:53:07.614Z,36.33
2018-12-05T00:55:45.366Z,29.63
2018-12-05T00:58:23.569Z,33.20
2018-12-05T01:00:59.262Z,30.70
2018-12-05T01:03:35.974Z,39.20
2018-12-05T01:06:13.952Z,33.84
2018-12-05T01:08:50.664Z,35.83
2018-12-05T01:11:28.239Z,37.98
2018-12-05T01:14:05.102Z,34.10
2018-12-05T01:16:42.109Z,38.73
2018-12-05T01:19:20.777Z,33.33
2018-12-05T01:21:58.428Z,33.67
2018-12-05T01:24:34.658Z,37.10
2018-12-05T01:27:04.259Z,39.77
2018-12-05T01:29:33.720Z,33.60
2018-12-05T01:34:53.673Z,37.40
2018-12-05T01:37:23.101Z,41.25
2018-12-05T01:39:52.491Z,35.47
2018-12-05T01:42:22.614Z,34.35
2018-12-05T01:44:57.129Z,37.07
2018-12-05T01:47:27.155Z,39.20
2018-12-05T01:49:56.575Z,37.20
2018-12-05T01:52:25.977Z,30.10
2018-12-05T01:54:55.393Z,35.73
2018-12-05T01:57:24.843Z,32.17
2018-12-05T01:59:54.330Z,36.37
2018-12-05T02:02:23.746Z,37.20
2018-12-05T02:04:56.631Z,37.87
2018-12-05T02:10:07.077Z,37.37
2018-12-05T02:12:36.556Z,35.83
2018-12-05T02:15:06.725Z,37.57
2018-12-05T02:17:36.143Z,37.40
2018-12-05T02:20:06.808Z,32.17
2018-12-05T02:22:36.191Z,34.90
2018-12-05T02:25:11.991Z,42.07
2018-12-05T02:27:41.454Z,33.33
2018-12-05T02:30:11.051Z,40.45
2018-12-05T02:32:41.304Z,34.27
2018-12-05T02:35:10.759Z,37.05
2018-12-05T02:37:40.117Z,36.30
2018-12-05T02:40:09.694Z,39.50
2018-12-05T02:42:39.074Z,40.37
2018-12-05T02:45:08.582Z,38.50
2018-12-05T02:47:37.926Z,39.77
2018-12-05T02:52:48.392Z,47.97
2018-12-05T02:55:17.745Z,48.57
2018-12-05T02:57:47.084Z,43.83
2018-12-05T03:00:16.519Z,44.60
2018-12-05T03:02:45.901Z,51.47
2018-12-05T03:05:15.635Z,53.05
2018-12-05T03:07:45.037Z,53.07
2018-12-05T03:10:14.480Z,54.27
2018-12-05T03:12:43.897Z,55.37
2018-12-05T03:16:16.089Z,54.90
2018-12-05T03:18:45.438Z,60.23
2018-12-05T03:21:14.938Z,72.80
2018-12-05T03:23:44.299Z,74.13
2018-12-05T03:26:13.652Z,76.20
2018-12-05T03:28:42.982Z,73.00
2018-12-05T03:31:12.357Z,71.22
2018-12-05T03:33:41.737Z,62.73
2018-12-05T03:36:11.210Z,76.92
2018-12-05T03:38:40.685Z,72.90
2018-12-05T03:41:10.199Z,83.10
2018-12-05T03:43:39.758Z,68.53
2018-12-05T03:46:09.188Z,79.07
2018-12-05T03:48:38.609Z,82.17
2018-12-05T03:51:07.977Z,84.47
2018-12-05T03:53:37.350Z,69.23
2018-12-05T03:56:06.971Z,66.47
2018-12-05T03:58:37.341Z,70.32
2018-12-05T04:01:08.173Z,62.17
2018-12-05T04:03:37.553Z,60.47
2018-12-05T04:06:06.893Z,66.80
2018-12-05T04:08:36.347Z,67.77
2018-12-05T04:11:06.121Z,75.83
2018-12-05T04:13:35.481Z,73.03
2018-12-05T04:16:06.280Z,66.73
2018-12-05T04:18:35.624Z,75.23
2018-12-05T04:21:06.223Z,78.57
2018-12-05T04:23:35.564Z,89.33
2018-12-05T04:31:07.261Z,75.00
2018-12-05T04:33:36.587Z,78.17
2018-12-05T04:36:06.022Z,75.83
2018-12-05T04:38:35.360Z,73.30
2018-12-05T04:41:05.957Z,68.67
2018-12-05T04:43:35.284Z,69.13
2018-12-05T04:46:04.608Z,80.00
2018-12-05T04:48:33.950Z,79.87
2018-12-05T04:51:03.333Z,74.50
2018-12-05T04:53:32.667Z,81.00
2018-12-05T04:56:02.756Z,82.10
2018-12-05T04:58:32.241Z,81.57
2018-12-05T05:01:01.577Z,83.60
2018-12-05T05:03:34.139Z,78.00
2018-12-05T05:06:03.525Z,85.07
2018-12-05T05:08:32.886Z,82.13
2018-12-05T05:11:02.269Z,77.73
2018-12-05T05:13:31.836Z,87.07
2018-12-05T05:16:01.157Z,83.60
2018-12-05T05:18:30.573Z,88.83
2018-12-05T05:20:59.912Z,68.83
2018-12-05T05:23:29.274Z,87.57
2018-12-05T05:25:58.627Z,91.00
2018-12-05T05:28:28.039Z,84.17
2018-12-05T05:30:57.358Z,94.03
2018-12-05T05:33:26.737Z,89.57
2018-12-05T05:38:25.685Z,94.53
2018-12-05T05:40:55.032Z,100.70
2018-12-05T05:46:56.004Z,83.73
2018-12-05T05:49:25.406Z,87.47
2018-12-05T05:51:54.779Z,88.40
2018-12-05T05:54:24.483Z,89.70
2018-12-05T05:56:53.881Z,92.57
2018-12-05T06:02:00.277Z,78.52
2018-12-05T06:04:29.648Z,85.00
2018-12-05T06:06:58.976Z,78.87
2018-12-05T06:09:28.297Z,66.63
2018-12-05T06:11:57.670Z,81.07
2018-12-05T06:14:26.978Z,81.97
2018-12-05T06:19:36.777Z,76.77
2018-12-05T06:22:06.091Z,68.17
2018-12-05T06:24:35.441Z,80.53
2018-12-05T06:27:06.069Z,72.13
2018-12-05T06:29:35.528Z,66.77
2018-12-05T06:32:06.114Z,81.97
2018-12-05T06:34:35.462Z,74.47
2018-12-05T06:39:35.790Z,80.33
2018-12-05T06:42:06.466Z,84.23
2018-12-05T06:44:35.796Z,74.10
2018-12-05T06:47:05.989Z,82.88
2018-12-05T06:49:35.356Z,64.47
2018-12-05T06:57:05.061Z,68.90
2018-12-05T06:59:34.474Z,65.83
2018-12-05T07:02:03.836Z,79.67
2018-12-05T07:04:33.165Z,65.97
2018-12-05T07:07:02.571Z,63.63
2018-12-05T07:09:31.938Z,65.27
2018-12-05T07:12:01.281Z,69.47
2018-12-05T07:14:30.642Z,71.00
2018-12-05T07:16:59.995Z,62.77
2018-12-05T07:19:29.430Z,55.73
2018-12-05T07:21:59.134Z,65.97
2018-12-05T07:24:28.626Z,57.47
2018-12-05T07:26:58.049Z,61.17
2018-12-05T07:29:27.604Z,59.80
2018-12-05T07:31:57.370Z,68.50
2018-12-05T07:34:26.745Z,63.07
2018-12-05T07:36:56.131Z,61.67
2018-12-05T07:39:25.493Z,58.53
2018-12-05T07:41:54.881Z,61.87
2018-12-05T07:44:24.277Z,60.77
2018-12-05T07:46:53.733Z,57.97
2018-12-05T07:49:23.167Z,63.60
2018-12-05T07:54:34.266Z,56.27
2018-12-05T07:57:03.632Z,57.77
2018-12-05T07:59:33.074Z,61.23
2018-12-05T08:02:02.462Z,67.33
2018-12-05T08:04:31.896Z,60.50
2018-12-05T08:09:42.353Z,65.53
2018-12-05T08:12:12.500Z,57.20
2018-12-05T08:14:41.874Z,63.57
2018-12-05T08:17:11.349Z,63.17
2018-12-05T08:19:40.705Z,58.03
2018-12-05T08:22:10.136Z,58.17
2018-12-05T08:24:39.520Z,65.33
2018-12-05T08:27:08.943Z,63.23
2018-12-05T08:29:38.377Z,62.90
2018-12-05T08:32:07.784Z,67.37
2018-12-05T08:34:37.213Z,54.60
2018-12-05T08:37:06.652Z,61.17
2018-12-05T08:39:36.223Z,61.83
2018-12-05T08:42:06.325Z,56.48
2018-12-05T08:44:35.683Z,66.03
2018-12-05T08:47:06.341Z,59.67
2018-12-05T08:49:36.400Z,60.60
2018-12-05T08:52:06.534Z,61.90
2018-12-05T08:54:35.891Z,55.55
2018-12-05T08:57:07.241Z,51.80
2018-12-05T08:59:36.603Z,59.13
2018-12-05T09:02:06.423Z,59.88
2018-12-05T09:04:35.956Z,55.53
2018-12-05T09:07:06.355Z,63.48
2018-12-05T09:09:35.820Z,53.97
2018-12-05T09:12:05.283Z,54.00
2018-12-05T09:14:34.702Z,61.33
2018-12-05T09:17:04.123Z,55.23
2018-12-05T09:19:33.644Z,54.40
2018-12-05T09:22:03.054Z,61.37
2018-12-05T09:24:32.404Z,52.07
2018-12-05T09:27:01.772Z,62.47
2018-12-05T09:29:31.143Z,59.17
2018-12-05T09:32:00.699Z,66.90
2018-12-05T09:34:30.090Z,64.63
2018-12-05T09:36:59.450Z,64.23
2018-12-05T09:39:28.811Z,64.50
2018-12-05T09:41:58.157Z,60.57
2018-12-05T09:44:27.504Z,61.60
2018-12-05T09:46:56.854Z,59.87
2018-12-05T09:49:26.181Z,57.50
2018-12-05T09:51:55.566Z,65.57
2018-12-05T09:54:24.948Z,60.90
2018-12-05T09:56:54.442Z,59.83
2018-12-05T09:59:23.856Z,60.97
2018-12-05T10:01:53.353Z,63.40
2018-12-05T10:04:22.869Z,57.10
2018-12-05T10:06:52.563Z,60.20
2018-12-05T10:09:22.064Z,54.03
2018-12-05T10:11:51.491Z,51.97
2018-12-05T10:14:20.891Z,52.27
2018-12-05T10:16:50.586Z,52.80
2018-12-05T10:19:20.449Z,58.63
2018-12-05T10:21:50.381Z,57.40
2018-12-05T10:24:19.998Z,57.38
2018-12-05T10:26:49.589Z,57.77
2018-12-05T10:29:19.240Z,53.38
2018-12-05T10:31:48.765Z,54.10
2018-12-05T10:34:18.388Z,54.00
2018-12-05T10:36:48.610Z,53.00
2018-12-05T10:39:18.247Z,54.23
2018-12-05T10:41:48.079Z,60.27
2018-12-05T10:44:17.711Z,47.40
2018-12-05T10:46:47.449Z,52.60
2018-12-05T10:49:17.235Z,44.73
2018-12-05T10:51:46.834Z,43.13
2018-12-05T10:54:16.424Z,46.90
2018-12-05T10:56:46.100Z,47.50
2018-12-05T10:59:15.818Z,45.03
2018-12-05T11:03:56.828Z,40.07
2018-12-05T11:08:35.739Z,46.80
2018-12-05T11:11:12.126Z,37.57
2018-12-05T11:13:46.749Z,42.00
2018-12-05T11:16:21.556Z,39.40
2018-12-05T11:18:56.022Z,37.90
2018-12-05T11:21:30.527Z,44.97
2018-12-05T11:24:09.022Z,41.03
2018-12-05T11:26:40.326Z,45.50
2018-12-05T11:29:09.668Z,40.80
2018-12-05T11:31:39.040Z,39.17
2018-12-05T11:34:08.428Z,37.35
2018-12-05T11:36:37.821Z,37.60
2018-12-05T11:39:09.109Z,37.03
2018-12-05T11:41:38.503Z,42.07
2018-12-05T11:44:07.892Z,34.13
2018-12-05T11:46:37.259Z,35.97
2018-12-05T11:49:07.136Z,38.63
2018-12-05T11:51:36.531Z,37.77
2018-12-05T11:54:06.313Z,36.40
2018-12-05T11:56:35.705Z,38.87
2018-12-05T12:01:47.785Z,35.77
2018-12-05T12:04:17.256Z,32.93
2018-12-05T12:06:46.642Z,35.50
2018-12-05T12:09:16.190Z,31.50
2018-12-05T12:11:45.642Z,36.00
2018-12-05T12:14:15.074Z,32.17
2018-12-05T12:16:44.420Z,33.13
2018-12-05T12:19:13.812Z,37.40
2018-12-05T12:21:44.301Z,35.67
2018-12-05T12:26:54.417Z,35.93
2018-12-05T12:29:23.925Z,34.00
2018-12-05T12:31:54.225Z,32.30
2018-12-05T12:34:24.197Z,30.13
2018-12-05T12:36:53.589Z,33.10
2018-12-05T12:39:24.098Z,31.60
2018-12-05T12:41:53.848Z,38.15
2018-12-05T12:44:23.278Z,32.77
2018-12-05T12:46:52.637Z,33.03
2018-12-05T12:49:23.106Z,31.53
2018-12-05T12:51:52.622Z,31.97
2018-12-05T12:54:22.191Z,30.75
2018-12-05T12:56:51.556Z,33.20
2018-12-05T12:59:21.017Z,30.67
2018-12-05T13:01:50.415Z,30.10
2018-12-05T13:04:20.214Z,26.93
2018-12-05T13:06:49.681Z,33.10
2018-12-05T13:09:19.105Z,29.87
2018-12-05T13:11:48.574Z,27.43
2018-12-05T13:14:17.963Z,29.15
2018-12-05T13:16:47.450Z,29.40
2018-12-05T13:19:16.926Z,32.30
2018-12-05T13:21:46.290Z,27.17
2018-12-05T13:24:15.695Z,28.02
2018-12-05T13:26:45.430Z,26.53
2018-12-05T13:29:14.947Z,30.70
2018-12-05T13:31:44.353Z,28.70
2018-12-05T13:34:13.834Z,28.67
2018-12-05T13:36:43.302Z,23.57
2018-12-05T13:39:12.833Z,25.35
2018-12-05T13:41:42.205Z,28.10
2018-12-05T13:44:11.621Z,28.67
2018-12-05T13:46:40.995Z,22.33
2018-12-05T13:49:10.434Z,27.00
2018-12-05T13:51:40.007Z,28.23
2018-12-05T13:54:09.403Z,27.27
2018-12-05T13:56:38.752Z,30.23
2018-12-05T14:01:49.403Z,25.73
2018-12-05T14:04:18.822Z,27.30
2018-12-05T14:06:48.152Z,26.23
2018-12-05T14:09:17.727Z,25.30
2018-12-05T14:11:47.052Z,28.93
2018-12-05T14:14:16.540Z,22.67
2018-12-05T14:16:45.990Z,26.17
2018-12-05T14:19:15.446Z,27.65
2018-12-05T14:21:44.918Z,25.43
2018-12-05T14:24:14.342Z,26.07
2018-12-05T14:26:43.696Z,21.90
2018-12-05T14:29:13.099Z,26.90
2018-12-05T14:31:45.026Z,27.13
2018-12-05T14:34:15.795Z,28.20
2018-12-05T14:36:45.180Z,25.37
2018-12-05T14:41:55.215Z,26.80
2018-12-05T14:44:24.656Z,25.53
2018-12-05T14:46:54.035Z,26.67
2018-12-05T14:49:23.397Z,25.87
2018-12-05T14:51:52.799Z,24.27
2018-12-05T14:54:22.288Z,25.00
2018-12-05T14:56:51.636Z,27.20
2018-12-05T14:59:21.155Z,27.50
2018-12-05T15:01:50.592Z,23.97
2018-12-05T15:04:20.009Z,27.60
2018-12-05T15:06:49.369Z,21.97
2018-12-05T15:09:19.270Z,23.77
2018-12-05T15:11:48.653Z,28.00
2018-12-05T15:14:18.028Z,22.57
2018-12-05T15:16:47.477Z,21.37
2018-12-05T15:19:16.852Z,23.53
2018-12-05T15:21:46.216Z,26.43
2018-12-05T15:24:15.862Z,26.00
2018-12-05T15:26:45.217Z,26.77
2018-12-05T15:29:14.553Z,26.00
2018-12-05T15:31:43.912Z,25.13
2018-12-05T15:34:13.340Z,25.20
2018-12-05T15:36:42.776Z,26.30
2018-12-05T15:39:12.366Z,27.87
2018-12-05T15:41:41.875Z,23.87
2018-12-05T15:46:42.925Z,27.77
2018-12-05T15:49:12.437Z,26.93
2018-12-05T15:51:42.059Z,24.63
2018-12-05T15:54:11.551Z,32.40
2018-12-05T15:56:41.207Z,24.40
2018-12-05T15:59:10.763Z,26.95
2018-12-05T16:01:40.278Z,26.57
2018-12-05T16:04:09.798Z,28.33
2018-12-05T16:06:39.418Z,22.27
2018-12-05T16:09:09.722Z,27.60
2018-12-05T16:11:39.534Z,29.87
2018-12-05T16:14:09.323Z,31.17
2018-12-05T16:16:39.262Z,27.30
2018-12-05T16:19:08.798Z,25.33
2018-12-05T16:24:15.055Z,33.33
2018-12-05T16:26:44.395Z,26.87
2018-12-05T16:29:13.796Z,29.20
2018-12-05T16:31:43.129Z,24.77
2018-12-05T16:34:12.480Z,26.00
2018-12-05T16:36:41.859Z,25.30
2018-12-05T16:39:11.363Z,27.17
2018-12-05T16:41:40.714Z,26.67
2018-12-05T16:44:13.010Z,24.13
2018-12-05T16:46:41.447Z,26.73
2018-12-05T16:49:10.764Z,24.80
2018-12-05T16:51:40.125Z,27.57
2018-12-05T16:54:09.682Z,27.93
2018-12-05T16:56:39.045Z,24.77
2018-12-05T16:59:08.371Z,24.60
2018-12-05T17:01:37.721Z,27.30
2018-12-05T17:04:07.264Z,24.73
2018-12-05T17:06:36.691Z,26.10
2018-12-05T17:09:08.235Z,28.40
2018-12-05T17:11:37.600Z,27.13
2018-12-05T17:14:07.161Z,24.00
2018-12-05T17:16:36.518Z,26.73
2018-12-05T17:19:06.096Z,26.00
2018-12-05T17:21:35.451Z,21.97
2018-12-05T17:24:06.065Z,24.37
2018-12-05T17:26:35.432Z,25.10
2018-12-05T17:29:06.113Z,28.10
2018-12-05T17:31:35.516Z,25.97
2018-12-05T17:34:06.170Z,27.80
2018-12-05T17:36:35.618Z,27.90
2018-12-05T17:39:09.455Z,25.50
2018-12-05T17:41:38.787Z,26.43
2018-12-05T17:44:08.173Z,31.50
2018-12-05T17:46:37.551Z,29.37
2018-12-05T17:49:07.003Z,26.87
2018-12-05T17:51:36.350Z,28.07
2018-12-05T17:54:06.292Z,28.10
2018-12-05T17:56:35.614Z,25.57
2018-12-05T17:59:06.226Z,30.27
2018-12-05T18:01:35.575Z,23.87
2018-12-05T18:04:06.206Z,28.73
2018-12-05T18:06:35.685Z,25.77
2018-12-05T18:09:09.017Z,24.97
2018-12-05T18:11:38.353Z,28.43
2018-12-05T18:14:07.800Z,27.70
2018-12-05T18:16:37.137Z,30.90
2018-12-05T18:19:06.774Z,25.37
2018-12-05T18:21:36.567Z,27.50
2018-12-05T18:24:06.315Z,23.05
2018-12-05T18:26:35.663Z,26.07
2018-12-05T18:29:06.405Z,28.13
2018-12-05T18:31:35.775Z,32.87
2018-12-05T18:34:06.465Z,29.07
2018-12-05T18:36:35.793Z,29.13
2018-12-05T18:39:08.225Z,27.25
2018-12-05T18:41:37.679Z,26.30
2018-12-05T18:44:07.054Z,28.07
2018-12-05T18:46:36.584Z,22.73
2018-12-05T18:49:06.439Z,30.30
2018-12-05T18:51:35.769Z,31.47
2018-12-05T18:54:06.409Z,32.60
2018-12-05T18:56:35.927Z,25.13
2018-12-05T18:59:06.559Z,27.10
2018-12-05T19:01:35.888Z,25.80
2018-12-05T19:04:06.098Z,29.27
2018-12-05T19:06:35.414Z,25.73
2018-12-05T19:09:07.796Z,31.07
2018-12-05T19:11:37.404Z,30.13
2018-12-05T19:14:12.049Z,29.77
2018-12-05T19:16:41.391Z,26.67
2018-12-05T19:19:10.931Z,30.80
2018-12-05T19:21:40.268Z,30.40
2018-12-05T19:24:09.806Z,27.73
2018-12-05T19:26:39.274Z,29.03
2018-12-05T19:29:08.650Z,30.55
2018-12-05T19:31:38.046Z,27.40
2018-12-05T19:34:07.517Z,38.47
2018-12-05T19:36:36.885Z,33.90
2018-12-05T19:39:09.358Z,28.63
2018-12-05T19:44:14.543Z,34.27
2018-12-05T19:46:45.805Z,38.93
2018-12-05T19:49:16.034Z,31.57
2018-12-05T19:51:45.615Z,35.53
2018-12-05T19:54:15.329Z,36.13
2018-12-05T19:56:45.142Z,33.50
2018-12-05T19:59:17.090Z,36.20
2018-12-05T20:01:46.911Z,36.40
2018-12-05T20:04:16.509Z,39.03
2018-12-05T20:06:46.131Z,38.53
2018-12-05T20:09:15.739Z,33.45
2018-12-05T20:11:45.535Z,34.93
2018-12-05T20:14:20.599Z,36.63
2018-12-05T20:16:50.288Z,36.33
2018-12-05T20:19:20.518Z,32.25
2018-12-05T20:21:50.336Z,32.10
2018-12-05T20:24:20.132Z,40.35
2018-12-05T20:26:49.754Z,37.80
2018-12-05T20:29:19.403Z,39.03
2018-12-05T20:31:49.128Z,35.43
2018-12-05T20:34:18.754Z,41.85
2018-12-05T20:36:48.900Z,43.33
2018-12-05T20:39:25.693Z,41.02
2018-12-05T20:41:49.948Z,48.07
2018-12-05T20:44:20.621Z,47.80
2018-12-05T20:46:50.328Z,46.17
2018-12-05T20:49:19.957Z,42.98
2018-12-05T20:51:49.501Z,46.03
2018-12-05T20:54:19.195Z,49.57
2018-12-05T20:56:48.924Z,45.25
2018-12-05T20:59:18.661Z,46.60
2018-12-05T21:01:48.243Z,45.93
2018-12-05T21:04:17.948Z,47.73
2018-12-05T21:06:47.478Z,51.87
2018-12-05T21:09:17.078Z,53.07
2018-12-05T21:11:46.694Z,51.03
2018-12-05T21:14:16.300Z,48.33
2018-12-05T21:16:46.027Z,46.93
2018-12-05T21:22:30.169Z,49.00
2018-12-05T21:24:59.852Z,45.90
2018-12-05T21:27:29.550Z,51.60
2018-12-05T21:29:59.373Z,49.20
2018-12-05T21:32:29.213Z,58.30
2018-12-05T21:34:59.347Z,48.37
2018-12-05T21:37:29.241Z,51.63
2018-12-05T21:39:58.837Z,51.40
2018-12-05T21:42:29.654Z,50.83
2018-12-05T21:44:59.390Z,47.17
2018-12-05T21:47:29.101Z,50.27
2018-12-05T21:52:44.300Z,49.43
2018-12-05T21:55:14.448Z,48.00
2018-12-05T22:00:21.447Z,51.10
2018-12-05T22:05:22.962Z,42.33
2018-12-05T22:07:56.970Z,47.87
2018-12-05T22:10:26.877Z,49.17
2018-12-05T22:12:56.809Z,50.38
2018-12-05T22:15:26.504Z,49.20
2018-12-05T22:17:57.006Z,53.73
2018-12-05T22:20:26.781Z,52.33
2018-12-05T22:22:56.198Z,53.70
2018-12-05T22:25:25.703Z,51.28
2018-12-05T22:27:55.122Z,48.97
2018-12-05T22:30:24.473Z,51.87
2018-12-05T22:32:53.914Z,52.33
2018-12-05T22:35:23.293Z,57.33
2018-12-05T22:37:52.654Z,56.63
2018-12-05T22:40:23.011Z,56.35
2018-12-05T22:42:52.927Z,52.33
2018-12-05T22:45:22.414Z,53.92
2018-12-05T22:47:51.725Z,59.30
2018-12-05T22:50:21.476Z,60.30
2018-12-05T22:52:50.820Z,64.60
2018-12-05T22:55:20.265Z,54.33
2018-12-05T22:57:49.613Z,59.03
2018-12-05T23:00:24.360Z,63.13
2018-12-05T23:02:53.733Z,58.80
2018-12-05T23:05:23.215Z,53.83
2018-12-05T23:07:52.551Z,57.27
2018-12-05T23:10:22.074Z,53.48
2018-12-05T23:12:51.536Z,58.37
2018-12-05T23:15:20.958Z,66.70
2018-12-05T23:17:50.293Z,60.90
2018-12-05T23:20:19.767Z,63.53
2018-12-05T23:22:49.157Z,66.20
2018-12-05T23:25:28.414Z,57.85
2018-12-05T23:27:58.576Z,52.13
2018-12-05T23:30:27.913Z,57.77
2018-12-05T23:32:57.620Z,57.58
2018-12-05T23:35:27.004Z,58.77
2018-12-05T23:37:56.475Z,61.27
2018-12-05T23:40:25.809Z,59.60
2018-12-05T23:42:56.423Z,60.27
2018-12-05T23:45:25.761Z,63.83
2018-12-05T23:47:56.042Z,56.87
2018-12-05T23:50:25.453Z,59.20
2018-12-05T23:52:54.824Z,61.37
2018-12-05T23:55:25.752Z,54.60
2018-12-05T23:57:55.101Z,60.40
